createdAt,value
2018-12-09T00:01:08.399Z,1.70
2018-12-09T00:03:37.862Z,2.17
2018-12-09T00:06:06.894Z,1.80
2018-12-09T00:08:36.091Z,2.00
2018-12-09T00:11:05.332Z,2.07
2018-12-09T00:13:34.585Z,1.70
2018-12-09T00:16:03.835Z,1.90
2018-12-09T00:18:33.020Z,1.70
2018-12-09T00:21:02.339Z,1.80
2018-12-09T00:23:31.358Z,1.60
2018-12-09T00:26:00.648Z,2.17
2018-12-09T00:28:29.947Z,1.70
2018-12-09T00:30:59.018Z,1.80
2018-12-09T00:33:28.388Z,2.17
2018-12-09T00:35:57.386Z,1.77
2018-12-09T00:38:27.530Z,1.60
2018-12-09T00:40:56.524Z,1.50
2018-12-09T00:43:25.615Z,1.67
2018-12-09T00:45:55.237Z,1.50
2018-12-09T00:48:25.243Z,1.80
2018-12-09T00:50:54.777Z,2.10
2018-12-09T00:53:24.374Z,1.80
2018-12-09T00:55:53.458Z,2.10
2018-12-09T00:58:22.765Z,2.33
2018-12-09T01:00:58.637Z,2.17
2018-12-09T01:03:28.637Z,2.10
2018-12-09T01:05:58.052Z,2.00
2018-12-09T01:08:27.442Z,2.40
2018-12-09T01:10:56.560Z,2.30
2018-12-09T01:13:26.056Z,2.90
2018-12-09T01:15:56.055Z,2.47
2018-12-09T01:18:25.179Z,2.83
2018-12-09T01:20:54.266Z,3.30
2018-12-09T01:23:23.413Z,3.63
2018-12-09T01:25:52.514Z,3.00
2018-12-09T01:28:21.700Z,3.60
2018-12-09T01:30:51.060Z,3.43
2018-12-09T01:33:20.148Z,3.47
2018-12-09T01:35:49.292Z,3.40
2018-12-09T01:38:18.429Z,3.07
2018-12-09T01:40:54.779Z,3.53
2018-12-09T01:43:23.989Z,3.50
2018-12-09T01:45:54.165Z,3.00
2018-12-09T01:48:23.325Z,3.30
2018-12-09T01:50:52.524Z,3.50
2018-12-09T01:54:29.311Z,2.97
2018-12-09T01:56:58.372Z,3.20
2018-12-09T01:59:27.361Z,3.60
2018-12-09T02:01:56.780Z,3.23
2018-12-09T02:04:26.063Z,3.90
2018-12-09T02:06:55.327Z,3.83
2018-12-09T02:09:24.556Z,3.77
2018-12-09T02:11:53.793Z,3.47
2018-12-09T02:14:23.734Z,3.10
2018-12-09T02:16:53.243Z,3.57
2018-12-09T02:19:25.615Z,2.50
2018-12-09T02:21:55.335Z,3.60
2018-12-09T02:24:24.622Z,3.67
2018-12-09T02:26:54.305Z,2.90
2018-12-09T02:29:23.610Z,3.90
2018-12-09T02:31:53.390Z,3.60
2018-12-09T02:34:22.760Z,3.43
2018-12-09T02:36:53.457Z,3.00
2018-12-09T02:39:22.449Z,3.67
2018-12-09T02:41:51.937Z,3.30
2018-12-09T02:44:21.290Z,3.30
2018-12-09T02:46:50.484Z,4.10
2018-12-09T02:49:19.560Z,3.00
2018-12-09T02:51:49.052Z,2.93
2018-12-09T02:54:18.152Z,3.50
2018-12-09T02:56:47.172Z,3.57
2018-12-09T02:59:16.138Z,3.57
2018-12-09T03:01:45.483Z,3.67
2018-12-09T03:04:14.429Z,3.67
2018-12-09T03:06:43.571Z,3.90
2018-12-09T03:09:12.762Z,4.00
2018-12-09T03:11:42.065Z,3.33
2018-12-09T03:14:11.568Z,3.00
2018-12-09T03:16:41.246Z,3.57
2018-12-09T03:19:10.303Z,3.67
2018-12-09T03:21:40.238Z,3.23
2018-12-09T03:24:09.444Z,3.87
2018-12-09T03:26:38.553Z,3.80
2018-12-09T03:29:08.068Z,4.63
2018-12-09T03:31:37.388Z,3.67
2018-12-09T03:34:06.911Z,3.80
2018-12-09T03:36:35.930Z,3.93
2018-12-09T03:39:07.738Z,3.53
2018-12-09T03:41:36.988Z,3.60
2018-12-09T03:44:06.378Z,3.03
2018-12-09T03:46:35.491Z,3.30
2018-12-09T03:49:05.322Z,2.97
2018-12-09T03:51:34.565Z,3.80
2018-12-09T03:54:04.103Z,3.10
2018-12-09T03:56:33.394Z,3.53
2018-12-09T03:59:02.385Z,3.07
2018-12-09T04:01:31.346Z,2.77
2018-12-09T04:04:00.648Z,3.33
2018-12-09T04:06:29.674Z,2.90
2018-12-09T04:08:59.067Z,4.00
2018-12-09T04:11:28.474Z,3.50
2018-12-09T04:13:58.641Z,3.53
2018-12-09T04:16:28.003Z,3.77
2018-12-09T04:18:57.620Z,3.33
2018-12-09T04:21:26.981Z,3.90
2018-12-09T04:23:56.290Z,3.30
2018-12-09T04:26:25.372Z,3.23
2018-12-09T04:28:54.507Z,3.50
2018-12-09T04:31:23.692Z,3.73
2018-12-09T04:33:53.042Z,3.50
2018-12-09T04:36:21.967Z,3.83
2018-12-09T04:38:50.955Z,3.53
2018-12-09T04:41:21.626Z,3.10
2018-12-09T04:43:51.108Z,3.53
2018-12-09T04:46:20.109Z,3.63
2018-12-09T04:48:49.160Z,3.27
2018-12-09T04:51:18.203Z,3.37
2018-12-09T04:53:47.244Z,3.50
2018-12-09T04:56:16.351Z,3.57
2018-12-09T04:58:56.757Z,3.83
2018-12-09T05:01:25.849Z,3.83
2018-12-09T05:03:55.098Z,3.43
2018-12-09T05:06:24.016Z,3.13
2018-12-09T05:08:53.128Z,4.10
2018-12-09T05:11:23.073Z,3.97
2018-12-09T05:13:52.008Z,3.50
2018-12-09T05:16:21.398Z,3.53
2018-12-09T05:18:50.798Z,3.70
2018-12-09T05:21:19.854Z,3.03
2018-12-09T05:23:49.531Z,3.07
2018-12-09T05:26:18.808Z,3.90
2018-12-09T05:28:47.862Z,3.30
2018-12-09T05:31:16.952Z,3.23
2018-12-09T05:33:45.939Z,2.57
2018-12-09T05:36:15.175Z,2.60
2018-12-09T05:38:44.646Z,2.80
2018-12-09T05:41:14.272Z,2.80
2018-12-09T05:43:43.588Z,2.73
2018-12-09T05:46:12.967Z,2.90
2018-12-09T05:48:42.249Z,2.40
2018-12-09T05:51:11.772Z,2.67
2018-12-09T05:53:40.897Z,3.57
2018-12-09T05:56:10.098Z,2.80
2018-12-09T05:58:39.461Z,2.23
2018-12-09T06:01:08.713Z,3.17
2018-12-09T06:03:37.762Z,2.50
2018-12-09T06:06:07.088Z,3.07
2018-12-09T06:08:36.293Z,2.43
2018-12-09T06:11:05.734Z,2.53
2018-12-09T06:13:34.853Z,2.30
2018-12-09T06:16:04.019Z,2.17
2018-12-09T06:18:33.313Z,2.60
2018-12-09T06:21:02.585Z,2.20
2018-12-09T06:23:32.363Z,2.20
2018-12-09T06:26:01.487Z,2.20
2018-12-09T06:28:30.600Z,2.20
2018-12-09T06:30:59.588Z,2.40
2018-12-09T06:33:28.640Z,2.30
2018-12-09T06:35:57.655Z,2.53
2018-12-09T06:38:27.221Z,2.43
2018-12-09T06:40:56.526Z,3.13
2018-12-09T06:43:26.027Z,2.63
2018-12-09T06:45:55.326Z,2.77
2018-12-09T06:48:24.366Z,3.13
2018-12-09T06:50:53.558Z,3.17
2018-12-09T06:53:22.732Z,3.57
2018-12-09T06:55:51.774Z,2.90
2018-12-09T06:58:21.216Z,3.07
2018-12-09T07:00:50.411Z,2.77
2018-12-09T07:03:19.649Z,3.47
2018-12-09T07:05:48.772Z,2.90
2018-12-09T07:08:18.098Z,3.03
2018-12-09T07:10:47.562Z,4.23
2018-12-09T07:13:16.745Z,4.40
2018-12-09T07:15:45.891Z,12.30
2018-12-09T07:18:14.971Z,5.50
2018-12-09T07:20:44.088Z,4.00
2018-12-09T07:23:13.162Z,3.60
2018-12-09T07:25:42.432Z,3.30
2018-12-09T07:28:11.623Z,3.87
2018-12-09T07:30:40.901Z,3.47
2018-12-09T07:33:10.497Z,3.50
2018-12-09T07:35:39.911Z,3.40
2018-12-09T07:38:09.182Z,3.77
2018-12-09T07:40:38.655Z,3.40
2018-12-09T07:43:07.768Z,3.53
2018-12-09T07:45:38.573Z,2.80
2018-12-09T07:48:07.798Z,3.53
2018-12-09T07:50:37.041Z,3.73
2018-12-09T07:53:06.230Z,3.83
2018-12-09T07:55:35.372Z,3.27
2018-12-09T07:58:04.839Z,3.37
2018-12-09T08:00:34.335Z,2.40
2018-12-09T08:03:03.743Z,2.70
2018-12-09T08:05:33.068Z,2.50
2018-12-09T08:08:02.309Z,2.40
2018-12-09T08:10:31.790Z,2.57
2018-12-09T08:13:01.117Z,2.70
2018-12-09T08:15:30.441Z,2.77
2018-12-09T08:17:59.782Z,3.17
2018-12-09T08:20:29.756Z,3.13
2018-12-09T08:22:59.577Z,3.40
2018-12-09T08:25:28.766Z,3.43
2018-12-09T08:27:58.008Z,3.37
2018-12-09T08:30:27.285Z,3.17
2018-12-09T08:32:56.449Z,3.97
2018-12-09T08:35:25.680Z,3.43
2018-12-09T08:37:55.026Z,4.00
2018-12-09T08:40:24.445Z,3.83
2018-12-09T08:42:53.675Z,3.73
2018-12-09T08:45:23.131Z,3.80
2018-12-09T08:47:52.461Z,4.10
2018-12-09T08:50:21.825Z,3.47
2018-12-09T08:52:51.116Z,3.87
2018-12-09T08:55:20.428Z,4.30
2018-12-09T08:57:49.521Z,4.97
2018-12-09T09:00:18.512Z,3.50
2018-12-09T09:02:47.811Z,3.30
2018-12-09T09:05:16.772Z,3.83
2018-12-09T09:07:45.862Z,3.27
2018-12-09T09:10:14.974Z,3.13
2018-12-09T09:12:44.320Z,3.40
2018-12-09T09:15:13.422Z,3.33
2018-12-09T09:17:42.959Z,3.80
2018-12-09T09:20:12.794Z,3.70
2018-12-09T09:22:41.876Z,3.63
2018-12-09T09:25:11.362Z,3.47
2018-12-09T09:27:40.351Z,3.40
2018-12-09T09:30:10.137Z,3.33
2018-12-09T09:32:39.175Z,3.57
2018-12-09T09:35:08.393Z,3.40
2018-12-09T09:37:37.574Z,3.43
2018-12-09T09:40:08.439Z,3.27
2018-12-09T09:42:38.055Z,3.10
2018-12-09T09:45:07.741Z,3.27
2018-12-09T09:47:36.921Z,3.37
2018-12-09T09:50:06.190Z,3.77
2018-12-09T09:52:35.314Z,3.10
2018-12-09T09:55:04.527Z,3.87
2018-12-09T09:57:33.498Z,3.27
2018-12-09T10:00:02.901Z,2.90
2018-12-09T10:02:32.518Z,3.30
2018-12-09T10:05:01.530Z,3.17
2018-12-09T10:07:30.883Z,3.87
2018-12-09T10:10:00.005Z,3.00
2018-12-09T10:12:29.163Z,3.63
2018-12-09T10:14:58.441Z,4.00
2018-12-09T10:17:27.616Z,3.27
2018-12-09T10:19:56.793Z,3.40
2018-12-09T10:22:25.802Z,3.43
2018-12-09T10:24:54.889Z,3.60
2018-12-09T10:27:24.338Z,3.20
2018-12-09T10:29:53.690Z,3.17
2018-12-09T10:32:22.877Z,3.57
2018-12-09T10:34:51.994Z,3.23
2018-12-09T10:37:21.193Z,4.13
2018-12-09T10:39:50.459Z,3.57
2018-12-09T10:42:19.651Z,2.80
2018-12-09T10:44:48.860Z,3.00
2018-12-09T10:47:18.290Z,3.60
2018-12-09T10:49:47.624Z,3.40
2018-12-09T10:52:16.759Z,2.80
2018-12-09T10:54:45.878Z,3.50
2018-12-09T10:57:15.065Z,3.60
2018-12-09T10:59:44.250Z,3.73
2018-12-09T11:02:18.507Z,3.40
2018-12-09T11:04:47.778Z,3.20
2018-12-09T11:07:16.897Z,3.27
2018-12-09T11:09:46.136Z,3.30
2018-12-09T11:12:15.237Z,3.13
2018-12-09T11:14:45.092Z,3.87
2018-12-09T11:17:14.382Z,3.47
2018-12-09T11:19:43.852Z,3.63
2018-12-09T11:22:13.131Z,3.73
2018-12-09T11:24:42.262Z,3.20
2018-12-09T11:27:11.400Z,3.20
2018-12-09T11:29:40.638Z,3.43
2018-12-09T11:32:09.842Z,3.33
2018-12-09T11:34:38.801Z,3.57
2018-12-09T11:37:07.924Z,3.80
2018-12-09T11:39:37.184Z,3.30
2018-12-09T11:42:06.477Z,3.17
2018-12-09T11:44:35.929Z,2.80
2018-12-09T11:47:05.097Z,3.10
2018-12-09T11:49:34.325Z,2.53
2018-12-09T11:52:04.180Z,2.53
2018-12-09T11:54:33.766Z,2.57
2018-12-09T11:57:03.094Z,2.80
2018-12-09T11:59:32.256Z,3.03
2018-12-09T12:02:01.567Z,2.10
2018-12-09T12:04:30.907Z,2.57
2018-12-09T12:07:00.069Z,2.20
2018-12-09T12:09:29.455Z,2.27
2018-12-09T12:11:58.754Z,2.23
2018-12-09T12:14:27.988Z,2.40
2018-12-09T12:16:57.070Z,2.27
2018-12-09T12:19:26.267Z,2.50
2018-12-09T12:21:55.804Z,3.17
2018-12-09T12:24:24.865Z,2.40
2018-12-09T12:26:54.199Z,2.30
2018-12-09T12:29:23.792Z,2.03
2018-12-09T12:31:53.159Z,1.90
2018-12-09T12:34:22.850Z,2.00
2018-12-09T12:36:52.482Z,3.90
2018-12-09T12:39:21.623Z,2.30
2018-12-09T12:41:50.714Z,2.10
2018-12-09T12:44:19.882Z,2.20
2018-12-09T12:46:49.088Z,2.10
2018-12-09T12:49:18.803Z,2.40
2018-12-09T12:51:47.946Z,2.57
2018-12-09T12:54:18.147Z,2.30
2018-12-09T12:56:47.315Z,2.40
2018-12-09T12:59:17.375Z,3.57
2018-12-09T13:01:46.954Z,2.70
2018-12-09T13:04:16.131Z,2.77
2018-12-09T13:06:45.450Z,2.77
2018-12-09T13:09:14.573Z,1.97
2018-12-09T13:11:43.620Z,2.30
2018-12-09T13:14:13.932Z,1.93
2018-12-09T13:16:43.113Z,2.50
2018-12-09T13:19:12.579Z,2.07
2018-12-09T13:21:41.927Z,1.90
2018-12-09T13:24:11.242Z,1.90
2018-12-09T13:26:40.907Z,2.30
2018-12-09T13:29:10.155Z,1.90
2018-12-09T13:31:39.489Z,1.90
2018-12-09T13:34:08.700Z,2.10
2018-12-09T13:36:38.059Z,1.77
2018-12-09T13:39:07.627Z,1.90
2018-12-09T13:41:37.577Z,2.17
2018-12-09T13:44:06.688Z,1.90
2018-12-09T13:46:37.310Z,2.30
2018-12-09T13:49:06.625Z,2.20
2018-12-09T13:51:36.342Z,2.10
2018-12-09T13:54:05.583Z,2.30
2018-12-09T13:56:35.001Z,2.00
2018-12-09T13:59:04.369Z,1.80
2018-12-09T14:01:33.668Z,2.33
2018-12-09T14:04:02.851Z,2.20
2018-12-09T14:06:32.178Z,2.20
2018-12-09T14:09:01.209Z,2.07
2018-12-09T14:11:30.260Z,2.37
2018-12-09T14:13:59.264Z,2.30
2018-12-09T14:16:28.423Z,1.60
2018-12-09T14:18:57.499Z,1.70
2018-12-09T14:21:26.641Z,1.60
2018-12-09T14:23:56.001Z,2.10
2018-12-09T14:26:24.994Z,2.10
2018-12-09T14:28:56.372Z,1.80
2018-12-09T14:31:27.125Z,1.50
2018-12-09T14:33:57.746Z,1.80
2018-12-09T14:36:26.976Z,1.70
2018-12-09T14:38:56.133Z,1.60
2018-12-09T14:41:25.604Z,2.00
2018-12-09T14:43:54.909Z,1.93
2018-12-09T14:46:24.051Z,1.90
2018-12-09T14:48:53.234Z,1.90
2018-12-09T14:51:22.229Z,2.00
2018-12-09T14:53:51.268Z,2.20
2018-12-09T14:56:20.323Z,2.63
2018-12-09T14:58:50.242Z,2.73
2018-12-09T15:01:19.356Z,2.63
2018-12-09T15:03:48.661Z,1.93
2018-12-09T15:06:17.715Z,2.10
2018-12-09T15:08:46.904Z,2.10
2018-12-09T15:11:16.289Z,1.80
2018-12-09T15:13:45.756Z,2.00
2018-12-09T15:16:15.041Z,2.03
2018-12-09T15:18:44.503Z,2.20
2018-12-09T15:21:13.670Z,2.00
2018-12-09T15:23:43.130Z,2.00
2018-12-09T15:26:12.335Z,1.90
2018-12-09T15:28:41.627Z,1.90
2018-12-09T15:31:11.912Z,2.20
2018-12-09T15:33:41.136Z,2.20
2018-12-09T15:36:10.385Z,2.43
2018-12-09T15:38:39.574Z,2.30
2018-12-09T15:41:08.582Z,2.70
2018-12-09T15:43:37.573Z,2.53
2018-12-09T15:46:06.706Z,3.23
2018-12-09T15:48:35.707Z,21.30
2018-12-09T15:51:05.156Z,5.80
2018-12-09T15:53:34.132Z,3.20
2018-12-09T15:56:03.860Z,3.83
2018-12-09T15:58:32.907Z,3.20
2018-12-09T16:01:02.268Z,3.13
2018-12-09T16:03:31.298Z,2.63
2018-12-09T16:06:00.522Z,2.70
2018-12-09T16:08:29.467Z,2.63
2018-12-09T16:10:58.857Z,3.20
2018-12-09T16:13:35.689Z,3.27
2018-12-09T16:16:04.585Z,3.57
2018-12-09T16:18:33.854Z,3.93
2018-12-09T16:21:02.902Z,3.50
2018-12-09T16:23:32.257Z,2.80
2018-12-09T16:26:01.566Z,3.37
2018-12-09T16:28:30.734Z,2.97
2018-12-09T16:31:03.316Z,3.00
2018-12-09T16:33:32.491Z,3.20
2018-12-09T16:36:01.638Z,3.90
2018-12-09T16:38:30.727Z,4.10
2018-12-09T16:41:00.206Z,3.70
2018-12-09T16:43:29.145Z,3.90
2018-12-09T16:45:58.135Z,3.50
2018-12-09T16:48:27.192Z,3.63
2018-12-09T16:50:56.291Z,4.00
2018-12-09T16:53:25.408Z,4.00
2018-12-09T16:55:54.600Z,5.47
2018-12-09T16:58:23.600Z,5.33
2018-12-09T17:00:52.920Z,4.30
2018-12-09T17:03:22.032Z,5.00
2018-12-09T17:05:51.106Z,4.40
2018-12-09T17:08:20.079Z,4.43
2018-12-09T17:10:49.115Z,3.67
2018-12-09T17:13:18.077Z,3.90
2018-12-09T17:15:50.351Z,4.50
2018-12-09T17:18:19.453Z,4.80
2018-12-09T17:20:48.563Z,4.70
2018-12-09T17:23:17.710Z,4.83
2018-12-09T17:25:46.789Z,5.10
2018-12-09T17:28:15.999Z,4.60
2018-12-09T17:30:45.106Z,4.70
2018-12-09T17:33:14.173Z,6.50
2018-12-09T17:35:43.156Z,5.13
2018-12-09T17:38:12.154Z,6.20
2018-12-09T17:40:41.964Z,6.23
2018-12-09T17:43:10.916Z,7.60
2018-12-09T17:45:39.910Z,8.53
2018-12-09T17:48:09.370Z,8.10
2018-12-09T17:50:38.449Z,7.97
2018-12-09T17:53:07.461Z,8.70
2018-12-09T17:55:36.793Z,7.23
2018-12-09T17:58:05.960Z,7.00
2018-12-09T18:00:35.509Z,7.10
2018-12-09T18:03:05.248Z,7.60
2018-12-09T18:05:34.745Z,6.93
2018-12-09T18:08:03.918Z,7.17
2018-12-09T18:10:33.087Z,6.70
2018-12-09T18:13:02.102Z,6.43
2018-12-09T18:15:31.292Z,7.00
2018-12-09T18:18:00.459Z,8.03
2018-12-09T18:20:29.515Z,8.20
2018-12-09T18:22:58.479Z,8.30
2018-12-09T18:25:27.984Z,8.03
2018-12-09T18:27:57.144Z,7.70
2018-12-09T18:30:26.739Z,8.00
2018-12-09T18:32:56.005Z,7.93
2018-12-09T18:35:25.342Z,7.87
2018-12-09T18:37:54.517Z,8.47
2018-12-09T18:40:23.636Z,9.77
2018-12-09T18:42:52.732Z,9.20
2018-12-09T18:45:21.743Z,9.33
2018-12-09T18:47:50.733Z,7.70
2018-12-09T18:50:19.713Z,8.37
2018-12-09T18:52:48.769Z,6.90
2018-12-09T18:55:17.731Z,6.40
2018-12-09T18:57:47.470Z,5.47
2018-12-09T19:00:16.568Z,5.70
2018-12-09T19:02:46.230Z,5.00
2018-12-09T19:05:15.557Z,4.73
2018-12-09T19:07:44.906Z,4.57
2018-12-09T19:10:14.431Z,5.03
2018-12-09T19:12:43.861Z,4.30
2018-12-09T19:15:13.959Z,3.77
2018-12-09T19:17:43.667Z,4.77
2018-12-09T19:20:12.582Z,4.10
2018-12-09T19:22:41.543Z,4.67
2018-12-09T19:25:10.472Z,4.30
2018-12-09T19:27:39.418Z,4.23
2018-12-09T19:30:08.565Z,4.40
2018-12-09T19:32:37.702Z,4.80
2018-12-09T19:35:07.249Z,4.20
2018-12-09T19:37:36.336Z,4.00
2018-12-09T19:40:05.891Z,7.50
2018-12-09T19:42:35.103Z,6.20
2018-12-09T19:45:04.250Z,8.40
2018-12-09T19:47:33.252Z,5.87
2018-12-09T19:50:02.345Z,5.20
2018-12-09T19:52:31.387Z,6.30
2018-12-09T19:55:00.430Z,4.93
2018-12-09T19:57:29.430Z,4.60
2018-12-09T19:59:58.587Z,4.97
2018-12-09T20:02:27.614Z,5.40
2018-12-09T20:04:56.895Z,4.73
2018-12-09T20:07:26.198Z,4.77
2018-12-09T20:09:55.179Z,5.77
2018-12-09T20:12:24.673Z,5.07
2018-12-09T20:14:54.024Z,4.80
2018-12-09T20:17:23.636Z,4.63
2018-12-09T20:19:52.711Z,4.43
2018-12-09T20:22:21.891Z,4.57
2018-12-09T20:24:51.014Z,4.80
2018-12-09T20:27:20.017Z,4.83
2018-12-09T20:29:49.119Z,4.83
2018-12-09T20:32:18.253Z,5.17
2018-12-09T20:34:47.281Z,4.53
2018-12-09T20:37:16.371Z,4.97
2018-12-09T20:39:45.540Z,4.80
2018-12-09T20:42:14.625Z,5.50
2018-12-09T20:44:43.845Z,4.73
2018-12-09T20:47:13.052Z,4.77
2018-12-09T20:49:42.078Z,5.13
2018-12-09T20:52:11.055Z,4.90
2018-12-09T20:54:40.391Z,5.27
2018-12-09T20:57:09.647Z,4.93
2018-12-09T20:59:38.727Z,5.57
2018-12-09T21:02:08.055Z,4.80
2018-12-09T21:04:38.161Z,3.77
2018-12-09T21:07:07.272Z,5.23
2018-12-09T21:09:36.603Z,4.43
2018-12-09T21:12:05.760Z,4.43
2018-12-09T21:14:34.844Z,3.70
2018-12-09T21:17:04.360Z,4.13
2018-12-09T21:19:33.742Z,4.13
2018-12-09T21:22:02.771Z,3.90
2018-12-09T21:24:32.055Z,4.17
2018-12-09T21:27:01.692Z,4.27
2018-12-09T21:29:30.737Z,4.07
2018-12-09T21:31:59.749Z,3.87
2018-12-09T21:34:28.811Z,4.60
2018-12-09T21:36:58.378Z,3.87
2018-12-09T21:39:27.571Z,3.57
2018-12-09T21:41:57.637Z,3.77
2018-12-09T21:44:27.257Z,4.00
2018-12-09T21:46:58.584Z,3.80
2018-12-09T21:49:27.786Z,4.43
2018-12-09T21:51:56.923Z,4.23
2018-12-09T21:54:26.119Z,3.97
2018-12-09T21:56:55.359Z,3.77
2018-12-09T21:59:24.658Z,3.40
2018-12-09T22:01:54.219Z,4.10
2018-12-09T22:04:23.289Z,4.23
2018-12-09T22:06:52.621Z,4.13
2018-12-09T22:09:21.691Z,3.90
2018-12-09T22:11:50.786Z,3.50
2018-12-09T22:14:19.819Z,4.03
2018-12-09T22:16:48.841Z,3.93
2018-12-09T22:19:18.322Z,4.00
2018-12-09T22:21:47.464Z,3.70
2018-12-09T22:24:16.492Z,3.73
2018-12-09T22:26:46.045Z,4.17
2018-12-09T22:29:15.139Z,4.00
2018-12-09T22:31:45.956Z,3.73
2018-12-09T22:34:15.158Z,3.90
2018-12-09T22:36:44.259Z,3.53
2018-12-09T22:39:13.292Z,4.70
2018-12-09T22:41:42.521Z,4.30
2018-12-09T22:44:11.649Z,3.80
2018-12-09T22:46:41.011Z,4.67
2018-12-09T22:49:11.193Z,4.17
2018-12-09T22:51:40.260Z,4.27
2018-12-09T22:54:09.707Z,4.97
2018-12-09T22:56:38.969Z,4.47
2018-12-09T22:59:08.240Z,3.90
2018-12-09T23:01:39.411Z,4.00
2018-12-09T23:04:08.441Z,3.70
2018-12-09T23:06:37.540Z,4.23
2018-12-09T23:09:07.073Z,5.43
2018-12-09T23:11:36.319Z,4.40
2018-12-09T23:14:05.592Z,4.30
2018-12-09T23:16:35.052Z,4.77
2018-12-09T23:19:04.999Z,4.97
2018-12-09T23:21:34.257Z,4.40
2018-12-09T23:24:03.444Z,5.13
2018-12-09T23:26:33.714Z,4.83
2018-12-09T23:29:02.783Z,4.67
2018-12-09T23:31:32.762Z,4.83
2018-12-09T23:34:01.876Z,4.63
2018-12-09T23:36:31.134Z,5.40
2018-12-09T23:39:00.360Z,5.00
2018-12-09T23:41:29.615Z,4.60
2018-12-09T23:46:35.007Z,4.70
2018-12-09T23:49:04.374Z,5.27
2018-12-09T23:51:33.707Z,4.30
2018-12-09T23:54:02.855Z,5.13
2018-12-09T23:56:31.858Z,5.13
2018-12-09T23:59:00.914Z,4.50
